createdAt,value
2019-02-25T00:00:08.699Z,16.73
2019-02-25T00:03:25.262Z,15.67
2019-02-25T00:06:41.876Z,15.53
2019-02-25T00:09:58.603Z,13.73
2019-02-25T00:20:32.050Z,17.50
2019-02-25T00:23:48.615Z,17.00
2019-02-25T00:27:05.891Z,18.97
2019-02-25T00:30:22.363Z,19.80
2019-02-25T00:33:37.611Z,20.13
2019-02-25T00:37:01.783Z,20.43
2019-02-25T00:40:18.444Z,19.73
2019-02-25T00:43:35.178Z,18.77
2019-02-25T00:46:52.510Z,17.67
2019-02-25T00:50:09.107Z,18.37
2019-02-25T00:53:26.511Z,20.77
2019-02-25T00:56:43.211Z,20.43
2019-02-25T00:59:59.752Z,19.27
2019-02-25T01:03:16.463Z,18.03
2019-02-25T01:06:33.806Z,18.67
2019-02-25T01:09:50.794Z,17.63
2019-02-25T01:13:07.323Z,18.67
2019-02-25T01:16:24.126Z,17.83
2019-02-25T01:19:39.406Z,19.63
2019-02-25T01:23:03.583Z,19.93
2019-02-25T01:26:20.312Z,20.60
2019-02-25T01:29:37.155Z,20.60
2019-02-25T01:32:52.470Z,20.87
2019-02-25T01:36:16.706Z,20.20
2019-02-25T01:39:33.641Z,21.80
2019-02-25T01:42:50.879Z,18.33
2019-02-25T01:46:07.961Z,16.73
2019-02-25T01:49:25.306Z,16.40
2019-02-25T01:52:41.945Z,15.87
2019-02-25T01:55:58.906Z,15.40
2019-02-25T02:02:35.725Z,15.63
2019-02-25T02:05:52.794Z,14.40
2019-02-25T02:09:09.839Z,15.70
2019-02-25T02:12:26.942Z,18.90
2019-02-25T02:15:43.894Z,17.67
2019-02-25T02:19:00.652Z,18.53
2019-02-25T02:22:17.502Z,17.00
2019-02-25T02:25:34.218Z,15.70
2019-02-25T02:28:51.111Z,15.87
2019-02-25T02:32:07.619Z,14.73
2019-02-25T02:35:24.455Z,14.67
2019-02-25T02:38:41.435Z,14.90
2019-02-25T02:41:58.684Z,15.13
2019-02-25T02:45:15.406Z,16.07
2019-02-25T02:48:31.955Z,17.50
2019-02-25T02:51:47.226Z,14.07
2019-02-25T02:55:11.479Z,14.10
2019-02-25T02:58:28.410Z,13.93
2019-02-25T03:01:45.291Z,13.33
2019-02-25T03:05:02.175Z,15.50
2019-02-25T03:08:19.004Z,14.40
2019-02-25T03:11:35.782Z,13.63
2019-02-25T03:14:52.734Z,14.60
2019-02-25T03:18:09.394Z,15.58
2019-02-25T03:21:26.335Z,13.80
2019-02-25T03:24:42.990Z,15.27
2019-02-25T03:28:00.028Z,14.37
2019-02-25T03:31:17.383Z,12.70
2019-02-25T03:34:34.336Z,14.87
2019-02-25T03:37:49.606Z,15.00
2019-02-25T03:41:13.750Z,16.57
2019-02-25T03:44:30.943Z,16.10
2019-02-25T03:47:48.087Z,14.50
2019-02-25T03:51:04.788Z,14.95
2019-02-25T03:54:21.643Z,15.05
2019-02-25T03:57:38.440Z,14.13
2019-02-25T04:00:55.844Z,15.45
2019-02-25T04:04:13.257Z,15.40
2019-02-25T04:07:29.760Z,16.12
2019-02-25T04:10:46.279Z,16.75
2019-02-25T04:14:02.927Z,15.03
2019-02-25T04:17:19.837Z,15.38
2019-02-25T04:20:36.242Z,16.23
2019-02-25T04:23:53.166Z,15.25
2019-02-25T04:27:09.973Z,16.85
2019-02-25T04:30:26.521Z,17.12
2019-02-25T04:33:43.201Z,17.47
2019-02-25T04:36:59.776Z,18.80
2019-02-25T04:40:16.650Z,16.37
2019-02-25T04:43:33.479Z,17.63
2019-02-25T04:46:50.459Z,17.70
2019-02-25T04:50:07.273Z,16.48
2019-02-25T04:53:23.822Z,17.50
2019-02-25T04:56:40.647Z,22.30
2019-02-25T04:59:57.363Z,20.43
2019-02-25T05:03:14.738Z,16.30
2019-02-25T05:06:31.468Z,16.25
2019-02-25T05:09:48.823Z,17.50
2019-02-25T05:13:06.067Z,17.02
2019-02-25T05:16:22.777Z,15.93
2019-02-25T05:19:39.403Z,15.70
2019-02-25T05:22:56.250Z,14.70
2019-02-25T05:26:13.223Z,14.98
2019-02-25T05:29:30.091Z,14.73
2019-02-25T05:32:46.909Z,14.10
2019-02-25T05:36:03.629Z,13.50
2019-02-25T05:39:20.383Z,14.33
2019-02-25T05:42:37.160Z,15.10
2019-02-25T05:45:42.968Z,13.20
2019-02-25T05:49:07.247Z,13.43
2019-02-25T05:52:12.280Z,13.68
2019-02-25T05:55:36.570Z,13.85
2019-02-25T05:58:52.012Z,14.85
2019-02-25T06:02:09.395Z,12.85
2019-02-25T06:05:26.267Z,13.80
2019-02-25T06:08:43.122Z,13.93
2019-02-25T06:12:00.611Z,17.90
2019-02-25T06:15:17.581Z,16.30
2019-02-25T06:18:34.697Z,16.12
2019-02-25T06:21:52.267Z,35.25
2019-02-25T06:25:09.825Z,15.35
2019-02-25T06:28:26.825Z,18.23
2019-02-25T06:31:44.080Z,16.30
2019-02-25T06:35:00.927Z,17.45
2019-02-25T06:38:17.571Z,17.62
2019-02-25T06:41:34.864Z,18.05
2019-02-25T06:44:52.106Z,19.48
2019-02-25T06:48:08.875Z,18.98
2019-02-25T06:51:25.602Z,19.40
2019-02-25T06:54:42.060Z,22.87
2019-02-25T06:57:58.824Z,20.85
2019-02-25T07:01:15.653Z,18.55
2019-02-25T07:04:51.501Z,21.82
2019-02-25T07:08:18.235Z,19.30
2019-02-25T07:11:46.448Z,19.87
2019-02-25T07:15:25.916Z,19.02
2019-02-25T07:19:02.015Z,21.60
2019-02-25T07:22:38.461Z,20.72
2019-02-25T07:26:02.927Z,19.07
2019-02-25T07:29:39.289Z,18.35
2019-02-25T07:33:15.422Z,19.55
2019-02-25T07:36:39.286Z,19.60
2019-02-25T07:40:18.228Z,19.80
2019-02-25T07:43:42.331Z,19.23
2019-02-25T07:47:18.463Z,18.80
2019-02-25T07:50:54.747Z,21.37
2019-02-25T07:54:19.799Z,26.52
2019-02-25T07:57:55.578Z,23.07
2019-02-25T08:01:32.575Z,20.10
2019-02-25T08:04:58.432Z,20.90
2019-02-25T08:08:28.901Z,19.70
2019-02-25T08:11:53.083Z,22.70
2019-02-25T08:15:29.231Z,20.30
2019-02-25T08:19:05.352Z,17.30
2019-02-25T08:22:41.659Z,18.30
2019-02-25T08:26:06.703Z,16.63
2019-02-25T08:29:42.953Z,20.90
2019-02-25T08:33:25.466Z,21.27
2019-02-25T08:37:02.576Z,18.80
2019-02-25T08:40:34.655Z,18.53
2019-02-25T08:44:24.295Z,20.30
2019-02-25T08:47:54.984Z,21.60
2019-02-25T08:51:11.672Z,17.90
2019-02-25T08:54:28.368Z,16.97
2019-02-25T08:57:44.946Z,19.20
2019-02-25T09:01:01.603Z,18.73
2019-02-25T09:04:18.923Z,19.03
2019-02-25T09:07:34.282Z,17.80
2019-02-25T09:10:58.436Z,17.40
2019-02-25T09:14:15.254Z,15.93
2019-02-25T09:17:32.275Z,17.10
2019-02-25T09:20:49.194Z,16.53
2019-02-25T09:24:07.690Z,16.77
2019-02-25T09:27:24.427Z,17.50
2019-02-25T09:30:41.207Z,16.40
2019-02-25T09:33:57.871Z,16.63
2019-02-25T09:37:14.895Z,15.63
2019-02-25T09:40:32.091Z,16.77
2019-02-25T09:43:48.641Z,17.33
2019-02-25T09:47:07.024Z,17.13
2019-02-25T09:50:24.030Z,15.57
2019-02-25T09:53:41.044Z,16.87
2019-02-25T09:56:57.890Z,19.10
2019-02-25T10:00:16.004Z,16.50
2019-02-25T10:03:33.142Z,16.97
2019-02-25T10:06:49.747Z,20.10
2019-02-25T10:10:06.783Z,17.40
2019-02-25T10:13:23.280Z,19.57
2019-02-25T10:16:39.879Z,17.30
2019-02-25T10:19:56.395Z,14.50
2019-02-25T10:23:13.220Z,16.00
2019-02-25T10:26:29.682Z,16.77
2019-02-25T10:29:46.511Z,17.30
2019-02-25T10:33:03.583Z,16.53
2019-02-25T10:36:20.317Z,17.03
2019-02-25T10:39:37.470Z,13.93
2019-02-25T10:42:54.286Z,27.37
2019-02-25T10:46:12.959Z,14.57
2019-02-25T10:49:31.316Z,14.17
2019-02-25T10:52:49.469Z,13.40
2019-02-25T10:56:07.050Z,14.63
2019-02-25T10:59:22.294Z,15.30
2019-02-25T11:02:47.365Z,15.93
2019-02-25T11:06:26.798Z,13.90
2019-02-25T11:10:08.799Z,13.93
2019-02-25T11:13:27.622Z,14.07
2019-02-25T11:16:46.021Z,17.30
2019-02-25T11:20:05.635Z,14.53
2019-02-25T11:23:22.899Z,14.33
2019-02-25T11:26:40.375Z,13.70
2019-02-25T11:29:57.743Z,14.07
2019-02-25T11:33:15.667Z,13.17
2019-02-25T11:36:32.391Z,10.90
2019-02-25T11:39:48.904Z,11.50
2019-02-25T11:43:08.238Z,12.10
2019-02-25T11:46:25.223Z,10.43
2019-02-25T11:49:42.094Z,10.30
2019-02-25T11:52:58.827Z,10.17
2019-02-25T11:56:15.699Z,11.23
2019-02-25T11:59:32.371Z,11.93
2019-02-25T12:02:49.140Z,11.47
2019-02-25T12:06:05.795Z,11.40
2019-02-25T12:09:22.786Z,11.00
2019-02-25T12:12:39.529Z,11.83
2019-02-25T12:15:56.695Z,11.33
2019-02-25T12:19:17.862Z,11.20
2019-02-25T12:22:32.171Z,10.47
2019-02-25T12:25:48.758Z,10.07
2019-02-25T12:29:10.916Z,11.60
2019-02-25T12:32:24.202Z,12.10
2019-02-25T12:35:41.170Z,10.10
2019-02-25T12:38:57.867Z,11.37
2019-02-25T12:42:15.167Z,10.73
2019-02-25T12:45:32.007Z,10.30
2019-02-25T12:48:48.628Z,10.80
2019-02-25T12:52:05.370Z,10.10
2019-02-25T12:55:22.274Z,9.67
2019-02-25T12:58:39.723Z,8.97
2019-02-25T13:01:56.666Z,9.40
2019-02-25T13:05:14.052Z,9.87
2019-02-25T13:08:31.114Z,9.63
2019-02-25T13:11:48.047Z,8.57
2019-02-25T13:15:13.105Z,8.13
2019-02-25T13:18:23.691Z,8.60
2019-02-25T13:21:40.494Z,8.27
2019-02-25T13:24:57.135Z,8.43
2019-02-25T13:28:13.954Z,8.07
2019-02-25T13:31:30.627Z,7.23
2019-02-25T13:34:47.456Z,7.40
2019-02-25T13:38:04.320Z,8.00
2019-02-25T13:41:19.991Z,7.77
2019-02-25T13:44:44.299Z,7.73
2019-02-25T13:48:01.483Z,7.70
2019-02-25T13:51:18.432Z,7.10
2019-02-25T13:54:36.415Z,7.70
2019-02-25T13:57:51.719Z,7.83
2019-02-25T14:01:16.211Z,7.33
2019-02-25T14:04:33.496Z,7.40
2019-02-25T14:07:50.327Z,8.90
2019-02-25T14:11:07.578Z,8.27
2019-02-25T14:14:24.711Z,7.13
2019-02-25T14:17:41.739Z,7.27
2019-02-25T14:20:59.795Z,7.33
2019-02-25T14:24:18.457Z,6.97
2019-02-25T14:27:35.411Z,7.53
2019-02-25T14:30:52.573Z,7.57
2019-02-25T14:34:09.904Z,8.17
2019-02-25T14:37:27.251Z,28.00
2019-02-25T14:40:46.595Z,10.83
2019-02-25T14:44:03.274Z,8.20
2019-02-25T14:47:22.909Z,7.50
2019-02-25T14:50:38.895Z,7.00
2019-02-25T14:53:56.283Z,6.90
2019-02-25T14:57:12.934Z,6.80
2019-02-25T15:00:32.793Z,6.80
2019-02-25T15:03:49.179Z,6.57
2019-02-25T15:07:08.152Z,6.30
2019-02-25T15:10:29.038Z,6.70
2019-02-25T15:13:43.039Z,6.47
2019-02-25T15:17:00.107Z,4.80
2019-02-25T15:20:18.598Z,4.90
2019-02-25T15:23:36.457Z,4.60
2019-02-25T15:26:57.258Z,3.40
2019-02-25T15:30:12.122Z,3.50
2019-02-25T15:33:29.983Z,3.90
2019-02-25T15:36:47.838Z,3.67
2019-02-25T15:40:04.875Z,3.97
2019-02-25T15:43:23.306Z,4.10
2019-02-25T15:46:40.370Z,4.63
2019-02-25T15:49:59.738Z,4.60
2019-02-25T15:53:16.617Z,4.10
2019-02-25T15:56:33.202Z,4.63
2019-02-25T15:59:50.504Z,4.53
2019-02-25T16:03:09.111Z,4.63
2019-02-25T16:06:28.811Z,4.77
2019-02-25T16:09:44.434Z,6.80
2019-02-25T16:13:02.285Z,6.43
2019-02-25T16:16:20.131Z,6.10
2019-02-25T16:19:45.498Z,6.30
2019-02-25T16:22:58.370Z,6.20
2019-02-25T16:26:16.071Z,5.53
2019-02-25T16:29:33.111Z,6.70
2019-02-25T16:32:50.359Z,6.10
2019-02-25T16:36:07.871Z,7.33
2019-02-25T16:39:25.734Z,6.47
2019-02-25T16:42:41.429Z,6.90
2019-02-25T16:46:06.427Z,7.30
2019-02-25T16:49:43.531Z,6.10
2019-02-25T16:53:03.724Z,7.47
2019-02-25T16:56:18.735Z,9.17
2019-02-25T16:59:35.706Z,8.20
2019-02-25T17:02:52.600Z,7.70
2019-02-25T17:06:11.458Z,7.33
2019-02-25T17:09:31.799Z,7.73
2019-02-25T17:12:49.990Z,4.90
2019-02-25T17:16:17.923Z,6.77
2019-02-25T17:19:26.480Z,7.10
2019-02-25T17:22:43.762Z,6.97
2019-02-25T17:26:02.008Z,6.00
2019-02-25T17:29:18.849Z,7.93
2019-02-25T17:32:37.832Z,8.33
2019-02-25T17:35:55.214Z,7.57
2019-02-25T17:39:12.997Z,8.40
2019-02-25T17:42:33.444Z,8.60
2019-02-25T17:45:49.431Z,8.63
2019-02-25T17:49:08.265Z,10.90
2019-02-25T17:52:25.847Z,11.27
2019-02-25T17:55:43.012Z,11.63
2019-02-25T17:59:01.032Z,10.80
2019-02-25T18:02:18.980Z,13.50
2019-02-25T18:05:38.047Z,15.17
2019-02-25T18:08:55.406Z,19.10
2019-02-25T18:12:13.383Z,14.37
2019-02-25T18:15:30.604Z,24.07
2019-02-25T18:18:50.761Z,56.67
2019-02-25T18:22:07.535Z,30.07
2019-02-25T18:25:24.875Z,24.20
2019-02-25T18:28:43.537Z,25.80
2019-02-25T18:32:01.745Z,30.00
2019-02-25T18:35:21.159Z,26.10
2019-02-25T18:38:36.365Z,27.50
2019-02-25T18:45:44.777Z,19.47
2019-02-25T18:49:02.985Z,16.47
2019-02-25T18:52:19.727Z,18.10
2019-02-25T18:55:36.930Z,19.63
2019-02-25T18:59:07.125Z,16.20
2019-02-25T19:02:14.491Z,19.00
2019-02-25T19:05:32.071Z,17.97
2019-02-25T19:08:49.411Z,20.87
2019-02-25T19:12:07.331Z,21.17
2019-02-25T19:15:24.681Z,23.80
2019-02-25T19:18:42.931Z,18.07
2019-02-25T19:22:00.419Z,18.40
2019-02-25T19:25:19.685Z,19.17
2019-02-25T19:28:35.963Z,17.73
2019-02-25T19:31:52.762Z,15.60
2019-02-25T19:35:10.223Z,16.00
2019-02-25T19:38:26.965Z,19.30
2019-02-25T19:41:46.940Z,18.27
2019-02-25T19:45:05.768Z,16.60
2019-02-25T19:48:22.629Z,16.33
2019-02-25T19:51:38.168Z,17.53
2019-02-25T19:54:55.108Z,17.80
2019-02-25T19:58:12.138Z,18.20
2019-02-25T20:01:29.043Z,18.60
2019-02-25T20:04:49.475Z,17.67
2019-02-25T20:08:05.395Z,15.83
2019-02-25T20:11:22.647Z,17.30
2019-02-25T20:14:40.196Z,19.17
2019-02-25T20:17:57.015Z,25.20
2019-02-25T20:21:12.448Z,24.00
2019-02-25T20:24:39.789Z,24.20
2019-02-25T20:28:04.353Z,17.30
2019-02-25T20:31:21.458Z,17.93
2019-02-25T20:34:38.393Z,18.20
2019-02-25T20:37:56.164Z,24.93
2019-02-25T20:41:16.056Z,30.17
2019-02-25T20:44:55.305Z,42.77
2019-02-25T20:48:20.294Z,27.00
2019-02-25T20:51:36.843Z,18.80
2019-02-25T20:54:53.446Z,20.10
2019-02-25T20:58:11.530Z,19.30
2019-02-25T21:01:28.571Z,19.10
2019-02-25T21:04:46.080Z,17.17
2019-02-25T21:08:03.594Z,17.23
2019-02-25T21:11:21.170Z,18.13
2019-02-25T21:14:40.298Z,23.63
2019-02-25T21:17:59.374Z,29.13
2019-02-25T21:21:16.235Z,19.13
2019-02-25T21:24:35.303Z,20.17
2019-02-25T21:27:50.562Z,17.17
2019-02-25T21:31:17.471Z,17.20
2019-02-25T21:34:55.366Z,15.40
2019-02-25T21:38:09.954Z,16.27
2019-02-25T21:41:35.024Z,16.23
2019-02-25T21:45:02.521Z,15.90
2019-02-25T21:48:21.182Z,18.03
2019-02-25T21:51:39.151Z,17.33
2019-02-25T21:54:55.875Z,16.63
2019-02-25T21:58:12.783Z,15.70
2019-02-25T22:01:29.974Z,14.40
2019-02-25T22:04:50.146Z,14.90
2019-02-25T22:08:06.938Z,15.23
2019-02-25T22:11:23.511Z,14.67
2019-02-25T22:14:41.189Z,14.60
2019-02-25T22:17:58.698Z,14.93
2019-02-25T22:21:17.236Z,16.57
2019-02-25T22:24:36.163Z,17.80
2019-02-25T22:27:52.991Z,15.80
2019-02-25T22:31:10.923Z,16.43
2019-02-25T22:34:27.994Z,16.27
2019-02-25T22:37:33.087Z,17.63
2019-02-25T22:40:59.422Z,17.83
2019-02-25T22:44:35.138Z,20.17
2019-02-25T22:47:52.030Z,20.80
2019-02-25T22:51:08.936Z,23.80
2019-02-25T22:54:25.853Z,21.27
2019-02-25T22:57:43.505Z,18.00
2019-02-25T23:01:03.108Z,17.07
2019-02-25T23:04:19.669Z,17.70
2019-02-25T23:07:45.715Z,18.13
2019-02-25T23:11:24.339Z,16.63
2019-02-25T23:14:42.496Z,16.90
2019-02-25T23:18:05.369Z,15.03
2019-02-25T23:21:23.729Z,14.17
2019-02-25T23:24:37.443Z,16.60
2019-02-25T23:27:55.733Z,14.60
2019-02-25T23:31:14.968Z,15.97
2019-02-25T23:34:31.799Z,16.67
2019-02-25T23:37:49.593Z,15.00
2019-02-25T23:41:07.654Z,16.60
2019-02-25T23:44:25.230Z,16.50
2019-02-25T23:47:41.973Z,16.00
2019-02-25T23:50:59.592Z,17.00
2019-02-25T23:54:18.485Z,17.83
2019-02-25T23:57:35.325Z,16.70
